sensor_id;sensor_type;location;lat;lon;timestamp;noise_LAeq;noise_LA_min;noise_LA_max;noise_LA01;noise_LA95
67308;Laerm;57662;51.436;5.978;2022-09-16T00:00:05;36.45;31.94;49.43;;
67308;Laerm;57662;51.436;5.978;2022-09-16T00:00:16;38.22;32.05;48.27;;
67308;Laerm;57662;51.436;5.978;2022-09-16T00:00:27;33.30;32.03;34.54;;
67308;Laerm;57662;51.436;5.978;2022-09-16T00:00:44;33.01;31.53;34.19;;
67308;Laerm;57662;51.436;5.978;2022-09-16T00:00:55;33.83;31.94;43.34;;
67308;Laerm;57662;51.436;5.978;2022-09-16T00:01:15;35.75;32.08;48.23;;
67308;Laerm;57662;51.436;5.978;2022-09-16T00:01:26;33.62;31.73;36.25;;
67308;Laerm;57662;51.436;5.978;2022-09-16T00:01:36;33.40;31.82;34.93;;
67308;Laerm;57662;51.436;5.978;2022-09-16T00:01:47;33.52;32.17;34.88;;
67308;Laerm;57662;51.436;5.978;2022-09-16T00:01:57;33.41;31.99;34.68;;
67308;Laerm;57662;51.436;5.978;2022-09-16T00:02:07;33.38;32.02;34.90;;
67308;Laerm;57662;51.436;5.978;2022-09-16T00:02:17;33.73;32.22;35.01;;
67308;Laerm;57662;51.436;5.978;2022-09-16T00:02:27;33.27;31.81;34.69;;
67308;Laerm;57662;51.436;5.978;2022-09-16T00:02:38;33.28;31.97;34.42;;
67308;Laerm;57662;51.436;5.978;2022-09-16T00:02:50;32.97;31.70;34.12;;
67308;Laerm;57662;51.436;5.978;2022-09-16T00:03:01;32.86;31.65;34.65;;
67308;Laerm;57662;51.436;5.978;2022-09-16T00:03:11;33.32;31.98;34.82;;
67308;Laerm;57662;51.436;5.978;2022-09-16T00:03:22;33.23;32.12;34.50;;
67308;Laerm;57662;51.436;5.978;2022-09-16T00:03:32;33.40;31.90;35.27;;
67308;Laerm;57662;51.436;5.978;2022-09-16T00:03:44;33.91;32.02;37.60;;
67308;Laerm;57662;51.436;5.978;2022-09-16T00:03:55;33.34;32.00;34.75;;
67308;Laerm;57662;51.436;5.978;2022-09-16T00:04:05;34.44;32.20;37.22;;
67308;Laerm;57662;51.436;5.978;2022-09-16T00:04:16;33.95;32.35;35.75;;
67308;Laerm;57662;51.436;5.978;2022-09-16T00:04:26;34.16;32.28;36.32;;
67308;Laerm;57662;51.436;5.978;2022-09-16T00:04:36;33.33;32.21;34.50;;
67308;Laerm;57662;51.436;5.978;2022-09-16T00:04:47;33.43;32.27;35.78;;
67308;Laerm;57662;51.436;5.978;2022-09-16T00:04:57;33.42;32.10;36.77;;
67308;Laerm;57662;51.436;5.978;2022-09-16T00:05:08;33.73;32.26;35.55;;
67308;Laerm;57662;51.436;5.978;2022-09-16T00:05:18;34.54;32.87;38.57;;
67308;Laerm;57662;51.436;5.978;2022-09-16T00:05:28;34.65;32.77;36.55;;
67308;Laerm;57662;51.436;5.978;2022-09-16T00:05:40;34.91;33.41;38.30;;
67308;Laerm;57662;51.436;5.978;2022-09-16T00:05:51;34.79;32.18;40.16;;
67308;Laerm;57662;51.436;5.978;2022-09-16T00:06:02;37.94;33.14;48.37;;
67308;Laerm;57662;51.436;5.978;2022-09-16T00:06:16;36.44;32.43;46.60;;
67308;Laerm;57662;51.436;5.978;2022-09-16T00:06:27;34.39;32.00;38.82;;
67308;Laerm;57662;51.436;5.978;2022-09-16T00:06:38;33.45;32.19;35.13;;
67308;Laerm;57662;51.436;5.978;2022-09-16T00:06:48;34.40;32.62;36.71;;
67308;Laerm;57662;51.436;5.978;2022-09-16T00:06:58;33.71;31.84;35.66;;
67308;Laerm;57662;51.436;5.978;2022-09-16T00:07:09;33.80;31.82;35.46;;
67308;Laerm;57662;51.436;5.978;2022-09-16T00:07:19;34.10;32.56;36.29;;
67308;Laerm;57662;51.436;5.978;2022-09-16T00:07:29;34.16;32.85;35.75;;
67308;Laerm;57662;51.436;5.978;2022-09-16T00:07:40;34.15;32.86;37.35;;
67308;Laerm;57662;51.436;5.978;2022-09-16T00:07:50;33.38;31.98;39.00;;
67308;Laerm;57662;51.436;5.978;2022-09-16T00:08:01;33.51;32.12;34.88;;
67308;Laerm;57662;51.436;5.978;2022-09-16T00:08:11;33.58;32.28;35.49;;
67308;Laerm;57662;51.436;5.978;2022-09-16T00:08:21;33.30;31.88;34.71;;
67308;Laerm;57662;51.436;5.978;2022-09-16T00:08:32;32.88;31.86;34.13;;
67308;Laerm;57662;51.436;5.978;2022-09-16T00:08:42;33.32;32.00;36.69;;
67308;Laerm;57662;51.436;5.978;2022-09-16T00:08:58;34.15;32.22;36.79;;
67308;Laerm;57662;51.436;5.978;2022-09-16T00:09:10;36.03;32.32;46.00;;
67308;Laerm;57662;51.436;5.978;2022-09-16T00:09:20;34.69;32.47;38.43;;
67308;Laerm;57662;51.436;5.978;2022-09-16T00:09:30;34.19;32.45;36.40;;
67308;Laerm;57662;51.436;5.978;2022-09-16T00:09:40;34.33;32.89;35.80;;
67308;Laerm;57662;51.436;5.978;2022-09-16T00:09:51;34.04;32.90;35.57;;
67308;Laerm;57662;51.436;5.978;2022-09-16T00:10:02;33.83;32.46;36.50;;
67308;Laerm;57662;51.436;5.978;2022-09-16T00:10:12;33.98;32.35;36.08;;
67308;Laerm;57662;51.436;5.978;2022-09-16T00:10:23;33.91;32.26;35.60;;
67308;Laerm;57662;51.436;5.978;2022-09-16T00:10:33;33.29;31.71;34.91;;
67308;Laerm;57662;51.436;5.978;2022-09-16T00:10:44;33.42;32.07;34.77;;
67308;Laerm;57662;51.436;5.978;2022-09-16T00:10:58;33.09;31.71;34.64;;
67308;Laerm;57662;51.436;5.978;2022-09-16T00:11:09;33.02;31.65;34.38;;
67308;Laerm;57662;51.436;5.978;2022-09-16T00:11:19;33.13;31.64;36.18;;
67308;Laerm;57662;51.436;5.978;2022-09-16T00:11:32;33.66;32.34;35.18;;
67308;Laerm;57662;51.436;5.978;2022-09-16T00:11:43;33.56;32.09;34.86;;
67308;Laerm;57662;51.436;5.978;2022-09-16T00:11:53;33.63;32.26;34.99;;
67308;Laerm;57662;51.436;5.978;2022-09-16T00:12:04;34.00;32.13;36.18;;
67308;Laerm;57662;51.436;5.978;2022-09-16T00:12:14;33.75;32.27;35.54;;
67308;Laerm;57662;51.436;5.978;2022-09-16T00:12:25;34.01;32.49;36.52;;
67308;Laerm;57662;51.436;5.978;2022-09-16T00:12:35;34.30;32.64;36.58;;
67308;Laerm;57662;51.436;5.978;2022-09-16T00:12:46;34.65;32.53;38.01;;
67308;Laerm;57662;51.436;5.978;2022-09-16T00:12:56;33.94;32.37;36.78;;
67308;Laerm;57662;51.436;5.978;2022-09-16T00:13:06;34.88;32.33;41.76;;
67308;Laerm;57662;51.436;5.978;2022-09-16T00:13:16;34.18;32.47;37.52;;
67308;Laerm;57662;51.436;5.978;2022-09-16T00:13:27;34.66;32.47;39.98;;
67308;Laerm;57662;51.436;5.978;2022-09-16T00:13:38;33.98;32.16;39.32;;
67308;Laerm;57662;51.436;5.978;2022-09-16T00:13:48;34.81;32.69;38.83;;
67308;Laerm;57662;51.436;5.978;2022-09-16T00:13:59;34.20;32.72;38.62;;
67308;Laerm;57662;51.436;5.978;2022-09-16T00:14:09;34.31;32.42;36.28;;
67308;Laerm;57662;51.436;5.978;2022-09-16T00:14:19;33.49;32.29;35.17;;
67308;Laerm;57662;51.436;5.978;2022-09-16T00:14:30;33.49;32.24;34.88;;
67308;Laerm;57662;51.436;5.978;2022-09-16T00:14:40;33.48;32.16;34.67;;
67308;Laerm;57662;51.436;5.978;2022-09-16T00:14:51;33.32;32.06;34.86;;
67308;Laerm;57662;51.436;5.978;2022-09-16T00:15:02;33.37;32.38;35.05;;
67308;Laerm;57662;51.436;5.978;2022-09-16T00:15:12;33.30;31.79;34.83;;
67308;Laerm;57662;51.436;5.978;2022-09-16T00:15:22;33.38;31.59;34.93;;
67308;Laerm;57662;51.436;5.978;2022-09-16T00:15:32;33.35;31.94;35.40;;
67308;Laerm;57662;51.436;5.978;2022-09-16T00:15:43;33.47;31.84;34.81;;
67308;Laerm;57662;51.436;5.978;2022-09-16T00:15:54;33.38;31.53;35.31;;
67308;Laerm;57662;51.436;5.978;2022-09-16T00:16:15;33.33;32.20;34.58;;
67308;Laerm;57662;51.436;5.978;2022-09-16T00:16:27;33.14;31.54;36.28;;
67308;Laerm;57662;51.436;5.978;2022-09-16T00:16:38;32.69;31.54;34.41;;
67308;Laerm;57662;51.436;5.978;2022-09-16T00:16:48;32.54;31.04;33.67;;
67308;Laerm;57662;51.436;5.978;2022-09-16T00:16:59;32.95;31.30;34.60;;
67308;Laerm;57662;51.436;5.978;2022-09-16T00:17:09;33.14;32.01;34.23;;
67308;Laerm;57662;51.436;5.978;2022-09-16T00:17:19;32.84;31.62;33.95;;
67308;Laerm;57662;51.436;5.978;2022-09-16T00:17:29;32.77;31.48;34.05;;
67308;Laerm;57662;51.436;5.978;2022-09-16T00:17:40;32.71;31.69;33.69;;
67308;Laerm;57662;51.436;5.978;2022-09-16T00:17:50;32.82;31.75;34.18;;
67308;Laerm;57662;51.436;5.978;2022-09-16T00:18:00;33.17;31.84;34.38;;
67308;Laerm;57662;51.436;5.978;2022-09-16T00:18:11;33.19;32.06;35.14;;
67308;Laerm;57662;51.436;5.978;2022-09-16T00:18:21;33.68;32.02;36.47;;
67308;Laerm;57662;51.436;5.978;2022-09-16T00:18:32;33.54;32.11;35.58;;
67308;Laerm;57662;51.436;5.978;2022-09-16T00:18:42;33.24;32.02;34.77;;
67308;Laerm;57662;51.436;5.978;2022-09-16T00:18:55;32.78;30.96;34.29;;
67308;Laerm;57662;51.436;5.978;2022-09-16T00:19:07;32.89;31.69;34.28;;
67308;Laerm;57662;51.436;5.978;2022-09-16T00:19:17;32.85;31.57;34.22;;
67308;Laerm;57662;51.436;5.978;2022-09-16T00:19:27;33.18;31.82;34.50;;
67308;Laerm;57662;51.436;5.978;2022-09-16T00:19:37;33.15;31.79;34.28;;
67308;Laerm;57662;51.436;5.978;2022-09-16T00:19:48;32.78;31.43;34.44;;
67308;Laerm;57662;51.436;5.978;2022-09-16T00:19:59;32.81;31.36;37.60;;
67308;Laerm;57662;51.436;5.978;2022-09-16T00:20:10;32.70;31.11;34.03;;
67308;Laerm;57662;51.436;5.978;2022-09-16T00:20:20;32.66;31.66;34.01;;
67308;Laerm;57662;51.436;5.978;2022-09-16T00:20:30;32.73;31.24;34.12;;
67308;Laerm;57662;51.436;5.978;2022-09-16T00:20:47;32.91;31.52;34.19;;
67308;Laerm;57662;51.436;5.978;2022-09-16T00:20:58;33.41;31.49;36.28;;
67308;Laerm;57662;51.436;5.978;2022-09-16T00:21:08;33.57;32.17;36.38;;
67308;Laerm;57662;51.436;5.978;2022-09-16T00:21:19;33.35;31.89;35.80;;
67308;Laerm;57662;51.436;5.978;2022-09-16T00:21:29;33.34;32.06;34.82;;
67308;Laerm;57662;51.436;5.978;2022-09-16T00:21:40;33.32;31.68;35.34;;
67308;Laerm;57662;51.436;5.978;2022-09-16T00:21:50;33.07;32.00;34.34;;
67308;Laerm;57662;51.436;5.978;2022-09-16T00:22:00;33.47;32.19;34.95;;
67308;Laerm;57662;51.436;5.978;2022-09-16T00:22:10;33.65;32.05;35.69;;
67308;Laerm;57662;51.436;5.978;2022-09-16T00:22:21;33.54;32.24;35.58;;
67308;Laerm;57662;51.436;5.978;2022-09-16T00:22:32;33.47;32.37;35.22;;
67308;Laerm;57662;51.436;5.978;2022-09-16T00:22:42;33.53;31.66;35.05;;
67308;Laerm;57662;51.436;5.978;2022-09-16T00:22:52;33.77;31.89;35.60;;
67308;Laerm;57662;51.436;5.978;2022-09-16T00:23:02;33.01;31.59;34.38;;
67308;Laerm;57662;51.436;5.978;2022-09-16T00:23:13;32.77;31.39;34.12;;
67308;Laerm;57662;51.436;5.978;2022-09-16T00:23:23;32.87;31.77;34.30;;
67308;Laerm;57662;51.436;5.978;2022-09-16T00:23:34;32.95;31.89;34.00;;
67308;Laerm;57662;51.436;5.978;2022-09-16T00:23:44;33.21;31.94;34.47;;
67308;Laerm;57662;51.436;5.978;2022-09-16T00:23:55;32.74;31.15;33.85;;
67308;Laerm;57662;51.436;5.978;2022-09-16T00:24:05;32.71;31.54;33.89;;
67308;Laerm;57662;51.436;5.978;2022-09-16T00:24:15;32.74;31.50;33.88;;
67308;Laerm;57662;51.436;5.978;2022-09-16T00:24:25;33.02;31.89;34.32;;
67308;Laerm;57662;51.436;5.978;2022-09-16T00:24:36;33.11;31.64;34.53;;
67308;Laerm;57662;51.436;5.978;2022-09-16T00:24:47;33.00;31.49;35.22;;
67308;Laerm;57662;51.436;5.978;2022-09-16T00:24:57;32.57;31.23;33.93;;
67308;Laerm;57662;51.436;5.978;2022-09-16T00:25:07;32.71;31.46;33.75;;
67308;Laerm;57662;51.436;5.978;2022-09-16T00:25:18;32.74;31.39;34.13;;
67308;Laerm;57662;51.436;5.978;2022-09-16T00:25:28;32.53;31.28;33.57;;
67308;Laerm;57662;51.436;5.978;2022-09-16T00:25:39;32.64;31.21;34.12;;
67308;Laerm;57662;51.436;5.978;2022-09-16T00:25:50;33.38;32.00;35.07;;
67308;Laerm;57662;51.436;5.978;2022-09-16T00:26:01;33.79;32.37;35.07;;
67308;Laerm;57662;51.436;5.978;2022-09-16T00:26:12;33.44;31.94;35.05;;
67308;Laerm;57662;51.436;5.978;2022-09-16T00:26:22;32.89;31.47;34.28;;
67308;Laerm;57662;51.436;5.978;2022-09-16T00:26:33;32.61;31.45;33.88;;
67308;Laerm;57662;51.436;5.978;2022-09-16T00:26:43;32.84;31.65;34.03;;
67308;Laerm;57662;51.436;5.978;2022-09-16T00:26:54;32.70;31.20;33.82;;
67308;Laerm;57662;51.436;5.978;2022-09-16T00:27:04;32.38;31.15;33.56;;
67308;Laerm;57662;51.436;5.978;2022-09-16T00:27:14;32.44;31.33;33.60;;
67308;Laerm;57662;51.436;5.978;2022-09-16T00:27:25;32.52;31.20;35.37;;
67308;Laerm;57662;51.436;5.978;2022-09-16T00:27:36;32.56;31.43;33.74;;
67308;Laerm;57662;51.436;5.978;2022-09-16T00:27:47;32.74;31.42;34.32;;
67308;Laerm;57662;51.436;5.978;2022-09-16T00:27:57;33.06;31.78;34.97;;
67308;Laerm;57662;51.436;5.978;2022-09-16T00:28:08;33.01;31.73;34.95;;
67308;Laerm;57662;51.436;5.978;2022-09-16T00:28:19;32.78;31.18;33.96;;
67308;Laerm;57662;51.436;5.978;2022-09-16T00:28:30;33.03;31.68;35.00;;
67308;Laerm;57662;51.436;5.978;2022-09-16T00:28:40;33.07;31.46;35.27;;
67308;Laerm;57662;51.436;5.978;2022-09-16T00:28:51;32.91;31.50;34.11;;
67308;Laerm;57662;51.436;5.978;2022-09-16T00:29:01;32.79;31.36;35.62;;
67308;Laerm;57662;51.436;5.978;2022-09-16T00:29:11;32.83;31.78;34.40;;
67308;Laerm;57662;51.436;5.978;2022-09-16T00:29:22;33.21;31.97;35.96;;
67308;Laerm;57662;51.436;5.978;2022-09-16T00:29:32;32.84;31.54;34.59;;
67308;Laerm;57662;51.436;5.978;2022-09-16T00:29:42;33.03;31.74;34.29;;
67308;Laerm;57662;51.436;5.978;2022-09-16T00:29:52;33.11;31.71;34.59;;
67308;Laerm;57662;51.436;5.978;2022-09-16T00:30:03;33.36;31.61;35.44;;
67308;Laerm;57662;51.436;5.978;2022-09-16T00:30:13;33.25;31.90;35.09;;
67308;Laerm;57662;51.436;5.978;2022-09-16T00:30:23;32.89;31.50;34.52;;
67308;Laerm;57662;51.436;5.978;2022-09-16T00:30:34;32.95;31.49;34.58;;
67308;Laerm;57662;51.436;5.978;2022-09-16T00:30:44;32.97;31.74;34.15;;
67308;Laerm;57662;51.436;5.978;2022-09-16T00:30:57;34.14;32.28;36.58;;
67308;Laerm;57662;51.436;5.978;2022-09-16T00:31:08;33.08;31.87;34.61;;
67308;Laerm;57662;51.436;5.978;2022-09-16T00:31:18;32.82;31.86;34.34;;
67308;Laerm;57662;51.436;5.978;2022-09-16T00:31:28;32.80;31.31;34.07;;
67308;Laerm;57662;51.436;5.978;2022-09-16T00:31:38;33.18;31.70;34.44;;
67308;Laerm;57662;51.436;5.978;2022-09-16T00:31:49;33.04;31.75;34.26;;
67308;Laerm;57662;51.436;5.978;2022-09-16T00:31:59;32.95;31.71;34.04;;
67308;Laerm;57662;51.436;5.978;2022-09-16T00:32:09;36.39;31.62;49.30;;
67308;Laerm;57662;51.436;5.978;2022-09-16T00:32:19;32.54;31.43;33.57;;
67308;Laerm;57662;51.436;5.978;2022-09-16T00:32:30;32.64;31.50;34.01;;
67308;Laerm;57662;51.436;5.978;2022-09-16T00:32:40;32.69;31.34;33.63;;
67308;Laerm;57662;51.436;5.978;2022-09-16T00:32:50;32.75;31.28;33.99;;
67308;Laerm;57662;51.436;5.978;2022-09-16T00:33:01;32.54;31.45;33.78;;
67308;Laerm;57662;51.436;5.978;2022-09-16T00:33:12;32.69;31.46;33.82;;
67308;Laerm;57662;51.436;5.978;2022-09-16T00:33:22;32.67;31.40;33.63;;
67308;Laerm;57662;51.436;5.978;2022-09-16T00:33:32;32.65;31.60;33.79;;
67308;Laerm;57662;51.436;5.978;2022-09-16T00:33:43;34.57;32.29;39.87;;
67308;Laerm;57662;51.436;5.978;2022-09-16T00:33:53;37.14;32.21;45.11;;
67308;Laerm;57662;51.436;5.978;2022-09-16T00:34:03;33.13;31.66;34.87;;
67308;Laerm;57662;51.436;5.978;2022-09-16T00:34:13;33.34;32.05;35.36;;
67308;Laerm;57662;51.436;5.978;2022-09-16T00:34:24;33.86;31.90;36.60;;
67308;Laerm;57662;51.436;5.978;2022-09-16T00:34:34;33.77;32.20;35.46;;
67308;Laerm;57662;51.436;5.978;2022-09-16T00:34:44;33.61;32.10;38.35;;
67308;Laerm;57662;51.436;5.978;2022-09-16T00:34:54;33.30;31.72;35.08;;
67308;Laerm;57662;51.436;5.978;2022-09-16T00:35:05;32.63;31.43;33.52;;
67308;Laerm;57662;51.436;5.978;2022-09-16T00:35:15;32.97;31.41;35.00;;
67308;Laerm;57662;51.436;5.978;2022-09-16T00:35:25;33.39;32.06;34.72;;
67308;Laerm;57662;51.436;5.978;2022-09-16T00:35:36;32.84;31.52;34.34;;
67308;Laerm;57662;51.436;5.978;2022-09-16T00:35:46;32.52;31.17;33.79;;
67308;Laerm;57662;51.436;5.978;2022-09-16T00:36:09;32.48;31.39;33.82;;
67308;Laerm;57662;51.436;5.978;2022-09-16T00:36:20;32.80;31.48;34.04;;
67308;Laerm;57662;51.436;5.978;2022-09-16T00:36:30;32.50;31.06;33.78;;
67308;Laerm;57662;51.436;5.978;2022-09-16T00:36:41;32.81;31.42;34.65;;
67308;Laerm;57662;51.436;5.978;2022-09-16T00:36:51;32.86;31.54;34.01;;
67308;Laerm;57662;51.436;5.978;2022-09-16T00:37:01;32.91;31.71;36.85;;
67308;Laerm;57662;51.436;5.978;2022-09-16T00:37:16;33.13;31.93;34.45;;
67308;Laerm;57662;51.436;5.978;2022-09-16T00:37:26;32.88;31.99;34.10;;
67308;Laerm;57662;51.436;5.978;2022-09-16T00:37:36;32.51;31.47;33.89;;
67308;Laerm;57662;51.436;5.978;2022-09-16T00:37:47;32.53;31.20;33.83;;
67308;Laerm;57662;51.436;5.978;2022-09-16T00:37:57;32.51;31.31;33.71;;
67308;Laerm;57662;51.436;5.978;2022-09-16T00:38:07;32.50;31.38;33.84;;
67308;Laerm;57662;51.436;5.978;2022-09-16T00:38:18;32.59;31.17;33.61;;
67308;Laerm;57662;51.436;5.978;2022-09-16T00:38:28;32.51;31.45;33.56;;
67308;Laerm;57662;51.436;5.978;2022-09-16T00:38:39;32.83;31.73;33.95;;
67308;Laerm;57662;51.436;5.978;2022-09-16T00:38:50;32.50;31.39;33.57;;
67308;Laerm;57662;51.436;5.978;2022-09-16T00:39:01;32.54;31.48;33.48;;
67308;Laerm;57662;51.436;5.978;2022-09-16T00:39:11;32.60;31.56;33.66;;
67308;Laerm;57662;51.436;5.978;2022-09-16T00:39:21;32.74;31.62;33.85;;
67308;Laerm;57662;51.436;5.978;2022-09-16T00:39:32;32.67;31.54;33.83;;
67308;Laerm;57662;51.436;5.978;2022-09-16T00:39:42;32.45;30.95;35.57;;
67308;Laerm;57662;51.436;5.978;2022-09-16T00:39:52;32.60;31.24;33.79;;
67308;Laerm;57662;51.436;5.978;2022-09-16T00:40:03;32.95;31.73;36.55;;
67308;Laerm;57662;51.436;5.978;2022-09-16T00:40:13;33.19;31.94;34.32;;
67308;Laerm;57662;51.436;5.978;2022-09-16T00:40:23;33.29;31.98;34.71;;
67308;Laerm;57662;51.436;5.978;2022-09-16T00:40:34;32.94;31.77;34.17;;
67308;Laerm;57662;51.436;5.978;2022-09-16T00:40:45;32.82;31.68;33.89;;
67308;Laerm;57662;51.436;5.978;2022-09-16T00:40:56;32.88;31.63;34.31;;
67308;Laerm;57662;51.436;5.978;2022-09-16T00:41:06;32.80;31.36;34.73;;
67308;Laerm;57662;51.436;5.978;2022-09-16T00:41:19;32.70;31.57;33.81;;
67308;Laerm;57662;51.436;5.978;2022-09-16T00:41:29;32.63;31.38;33.99;;
67308;Laerm;57662;51.436;5.978;2022-09-16T00:41:42;32.68;31.52;34.09;;
67308;Laerm;57662;51.436;5.978;2022-09-16T00:41:53;33.22;32.13;34.67;;
67308;Laerm;57662;51.436;5.978;2022-09-16T00:42:03;32.93;31.31;34.24;;
67308;Laerm;57662;51.436;5.978;2022-09-16T00:42:14;32.62;31.09;33.85;;
67308;Laerm;57662;51.436;5.978;2022-09-16T00:42:24;32.61;31.57;33.56;;
67308;Laerm;57662;51.436;5.978;2022-09-16T00:42:40;33.31;31.77;40.12;;
67308;Laerm;57662;51.436;5.978;2022-09-16T00:42:51;33.51;31.30;41.15;;
67308;Laerm;57662;51.436;5.978;2022-09-16T00:43:01;33.67;31.65;36.56;;
67308;Laerm;57662;51.436;5.978;2022-09-16T00:43:12;33.71;32.42;35.87;;
67308;Laerm;57662;51.436;5.978;2022-09-16T00:43:22;33.80;31.79;35.82;;
67308;Laerm;57662;51.436;5.978;2022-09-16T00:43:49;34.33;32.64;37.04;;
67308;Laerm;57662;51.436;5.978;2022-09-16T00:44:04;35.17;32.50;37.99;;
67308;Laerm;57662;51.436;5.978;2022-09-16T00:44:54;34.44;32.08;37.73;;
67308;Laerm;57662;51.436;5.978;2022-09-16T00:45:19;34.25;32.23;36.52;;
67308;Laerm;57662;51.436;5.978;2022-09-16T00:45:30;34.13;31.70;39.05;;
67308;Laerm;57662;51.436;5.978;2022-09-16T00:45:41;33.15;31.89;34.62;;
67308;Laerm;57662;51.436;5.978;2022-09-16T00:45:58;32.88;31.61;34.18;;
67308;Laerm;57662;51.436;5.978;2022-09-16T00:46:10;33.15;31.52;34.66;;
67308;Laerm;57662;51.436;5.978;2022-09-16T00:46:31;33.86;32.22;36.25;;
67308;Laerm;57662;51.436;5.978;2022-09-16T00:46:43;33.42;31.67;35.46;;
67308;Laerm;57662;51.436;5.978;2022-09-16T00:46:54;33.23;31.72;34.65;;
67308;Laerm;57662;51.436;5.978;2022-09-16T00:47:05;32.92;31.76;34.80;;
67308;Laerm;57662;51.436;5.978;2022-09-16T00:47:15;32.76;31.42;34.07;;
67308;Laerm;57662;51.436;5.978;2022-09-16T00:47:39;39.23;33.40;46.91;;
67308;Laerm;57662;51.436;5.978;2022-09-16T00:47:57;37.50;32.45;48.62;;
67308;Laerm;57662;51.436;5.978;2022-09-16T00:48:09;33.51;31.76;36.10;;
67308;Laerm;57662;51.436;5.978;2022-09-16T00:48:25;33.27;31.63;34.56;;
67308;Laerm;57662;51.436;5.978;2022-09-16T00:48:36;32.92;31.59;34.26;;
67308;Laerm;57662;51.436;5.978;2022-09-16T00:48:46;32.89;31.83;34.56;;
67308;Laerm;57662;51.436;5.978;2022-09-16T00:48:57;32.89;31.58;34.70;;
67308;Laerm;57662;51.436;5.978;2022-09-16T00:49:12;32.64;31.23;33.78;;
67308;Laerm;57662;51.436;5.978;2022-09-16T00:49:25;32.95;31.66;35.01;;
67308;Laerm;57662;51.436;5.978;2022-09-16T00:49:37;33.19;31.57;35.45;;
67308;Laerm;57662;51.436;5.978;2022-09-16T00:49:47;33.07;31.59;35.18;;
67308;Laerm;57662;51.436;5.978;2022-09-16T00:50:01;33.34;31.84;35.15;;
67308;Laerm;57662;51.436;5.978;2022-09-16T00:50:16;33.97;32.16;36.46;;
67308;Laerm;57662;51.436;5.978;2022-09-16T00:50:31;34.48;32.34;50.46;;
67308;Laerm;57662;51.436;5.978;2022-09-16T00:50:57;33.61;32.16;35.32;;
67308;Laerm;57662;51.436;5.978;2022-09-16T00:51:09;33.46;31.83;36.53;;
67308;Laerm;57662;51.436;5.978;2022-09-16T00:51:20;32.94;31.85;33.95;;
67308;Laerm;57662;51.436;5.978;2022-09-16T00:51:31;33.14;31.60;37.88;;
67308;Laerm;57662;51.436;5.978;2022-09-16T00:51:42;33.36;31.83;34.62;;
67308;Laerm;57662;51.436;5.978;2022-09-16T00:51:55;33.42;32.00;35.21;;
67308;Laerm;57662;51.436;5.978;2022-09-16T00:52:06;33.44;31.71;34.89;;
67308;Laerm;57662;51.436;5.978;2022-09-16T00:52:17;33.69;31.64;36.18;;
67308;Laerm;57662;51.436;5.978;2022-09-16T00:52:28;34.35;32.34;37.14;;
67308;Laerm;57662;51.436;5.978;2022-09-16T00:52:39;34.15;32.28;36.67;;
67308;Laerm;57662;51.436;5.978;2022-09-16T00:52:50;34.71;32.89;36.73;;
67308;Laerm;57662;51.436;5.978;2022-09-16T00:53:03;34.46;32.15;36.86;;
67308;Laerm;57662;51.436;5.978;2022-09-16T00:53:15;34.10;32.54;35.59;;
67308;Laerm;57662;51.436;5.978;2022-09-16T00:53:27;34.66;32.86;37.42;;
67308;Laerm;57662;51.436;5.978;2022-09-16T00:53:42;34.15;32.69;36.07;;
67308;Laerm;57662;51.436;5.978;2022-09-16T00:53:56;33.91;32.16;37.64;;
67308;Laerm;57662;51.436;5.978;2022-09-16T00:54:09;34.26;32.40;38.82;;
67308;Laerm;57662;51.436;5.978;2022-09-16T00:54:19;35.72;32.92;43.54;;
67308;Laerm;57662;51.436;5.978;2022-09-16T00:54:30;33.91;32.03;35.32;;
67308;Laerm;57662;51.436;5.978;2022-09-16T00:54:42;33.64;31.81;35.37;;
67308;Laerm;57662;51.436;5.978;2022-09-16T00:54:52;33.37;31.83;34.83;;
67308;Laerm;57662;51.436;5.978;2022-09-16T00:55:05;33.44;32.24;34.69;;
67308;Laerm;57662;51.436;5.978;2022-09-16T00:55:17;33.22;31.69;35.08;;
67308;Laerm;57662;51.436;5.978;2022-09-16T00:55:31;33.24;31.92;34.78;;
67308;Laerm;57662;51.436;5.978;2022-09-16T00:55:42;33.45;31.85;35.02;;
67308;Laerm;57662;51.436;5.978;2022-09-16T00:55:54;33.18;31.52;34.78;;
67308;Laerm;57662;51.436;5.978;2022-09-16T00:56:05;33.32;32.07;34.48;;
67308;Laerm;57662;51.436;5.978;2022-09-16T00:56:17;33.44;32.27;34.71;;
67308;Laerm;57662;51.436;5.978;2022-09-16T00:56:29;33.77;32.46;35.25;;
67308;Laerm;57662;51.436;5.978;2022-09-16T00:56:41;33.70;32.16;35.11;;
67308;Laerm;57662;51.436;5.978;2022-09-16T00:56:53;34.29;32.36;38.15;;
67308;Laerm;57662;51.436;5.978;2022-09-16T00:57:04;36.32;33.14;39.28;;
67308;Laerm;57662;51.436;5.978;2022-09-16T00:57:17;38.79;33.22;47.25;;
67308;Laerm;57662;51.436;5.978;2022-09-16T00:57:27;33.69;32.26;35.23;;
67308;Laerm;57662;51.436;5.978;2022-09-16T00:57:38;32.98;31.89;34.37;;
67308;Laerm;57662;51.436;5.978;2022-09-16T00:57:49;33.15;32.00;34.61;;
67308;Laerm;57662;51.436;5.978;2022-09-16T00:58:09;33.53;32.16;35.27;;
67308;Laerm;57662;51.436;5.978;2022-09-16T00:58:45;33.21;31.63;36.48;;
67308;Laerm;57662;51.436;5.978;2022-09-16T00:59:01;33.36;31.79;34.90;;
67308;Laerm;57662;51.436;5.978;2022-09-16T00:59:24;33.43;31.84;35.92;;
67308;Laerm;57662;51.436;5.978;2022-09-16T00:59:40;32.98;31.52;34.21;;
67308;Laerm;57662;51.436;5.978;2022-09-16T00:59:51;33.02;31.63;34.36;;
67308;Laerm;57662;51.436;5.978;2022-09-16T01:00:04;33.22;32.19;34.86;;
67308;Laerm;57662;51.436;5.978;2022-09-16T01:00:15;42.46;31.59;51.03;;
67308;Laerm;57662;51.436;5.978;2022-09-16T01:00:25;33.51;31.59;48.41;;
67308;Laerm;57662;51.436;5.978;2022-09-16T01:00:35;33.20;31.62;35.51;;
67308;Laerm;57662;51.436;5.978;2022-09-16T01:00:47;34.01;32.10;37.51;;
67308;Laerm;57662;51.436;5.978;2022-09-16T01:00:58;33.94;31.64;37.46;;
67308;Laerm;57662;51.436;5.978;2022-09-16T01:01:08;34.02;32.33;36.43;;
67308;Laerm;57662;51.436;5.978;2022-09-16T01:01:18;33.45;31.90;35.62;;
67308;Laerm;57662;51.436;5.978;2022-09-16T01:01:29;33.03;31.42;34.36;;
67308;Laerm;57662;51.436;5.978;2022-09-16T01:01:40;32.72;31.50;33.94;;
67308;Laerm;57662;51.436;5.978;2022-09-16T01:01:54;33.16;32.06;35.10;;
67308;Laerm;57662;51.436;5.978;2022-09-16T01:02:06;33.34;32.12;38.37;;
67308;Laerm;57662;51.436;5.978;2022-09-16T01:02:18;33.05;31.95;36.93;;
67308;Laerm;57662;51.436;5.978;2022-09-16T01:02:29;32.80;31.78;33.95;;
67308;Laerm;57662;51.436;5.978;2022-09-16T01:02:42;33.05;31.87;34.46;;
67308;Laerm;57662;51.436;5.978;2022-09-16T01:02:53;33.00;31.04;34.29;;
67308;Laerm;57662;51.436;5.978;2022-09-16T01:03:04;33.15;31.67;34.51;;
67308;Laerm;57662;51.436;5.978;2022-09-16T01:03:14;33.16;31.81;35.10;;
67308;Laerm;57662;51.436;5.978;2022-09-16T01:03:25;33.40;31.52;34.80;;
67308;Laerm;57662;51.436;5.978;2022-09-16T01:03:47;33.45;32.06;35.08;;
67308;Laerm;57662;51.436;5.978;2022-09-16T01:04:01;34.24;31.68;37.80;;
67308;Laerm;57662;51.436;5.978;2022-09-16T01:04:13;34.24;32.48;36.95;;
67308;Laerm;57662;51.436;5.978;2022-09-16T01:04:26;33.80;32.15;36.11;;
67308;Laerm;57662;51.436;5.978;2022-09-16T01:04:41;33.94;32.45;35.95;;
67308;Laerm;57662;51.436;5.978;2022-09-16T01:05:00;33.58;32.27;34.92;;
67308;Laerm;57662;51.436;5.978;2022-09-16T01:05:13;33.41;32.01;34.81;;